createdAt,value
2019-05-19T00:00:46.923Z,16.50
2019-05-19T00:06:07.437Z,21.00
2019-05-19T00:22:24.036Z,18.43
2019-05-19T00:33:19.194Z,17.73
2019-05-19T00:44:09.947Z,25.87
2019-05-19T00:49:40.582Z,19.20
2019-05-19T00:54:48.616Z,19.13
2019-05-19T01:22:11.130Z,16.43
2019-05-19T01:27:30.416Z,20.67
2019-05-19T01:32:46.092Z,18.70
2019-05-19T01:38:04.984Z,20.20
2019-05-19T01:43:26.832Z,15.37
2019-05-19T01:48:47.344Z,18.93
2019-05-19T01:54:07.346Z,19.40
2019-05-19T02:10:22.101Z,20.53
2019-05-19T02:15:40.871Z,16.13
2019-05-19T02:21:04.152Z,21.73
2019-05-19T02:26:23.647Z,17.90
2019-05-19T02:31:42.623Z,21.70
2019-05-19T02:37:01.889Z,20.57
2019-05-19T02:42:22.930Z,16.10
2019-05-19T02:58:42.217Z,24.40
2019-05-19T03:09:32.328Z,17.93
2019-05-19T03:14:50.591Z,25.80
2019-05-19T03:20:09.563Z,27.37
2019-05-19T03:25:29.775Z,17.37
2019-05-19T03:47:16.417Z,28.50
2019-05-19T03:52:35.889Z,18.70
2019-05-19T03:57:55.896Z,26.07
2019-05-19T04:03:14.373Z,41.70
2019-05-19T04:08:34.466Z,35.63
2019-05-19T04:13:56.982Z,30.40
2019-05-19T04:19:16.721Z,55.87
2019-05-19T04:24:36.925Z,67.03
2019-05-19T04:30:00.006Z,95.67
2019-05-19T04:35:21.908Z,153.67
2019-05-19T04:40:41.754Z,149.10
2019-05-19T05:02:29.200Z,249.33
2019-05-19T05:07:48.892Z,121.57
2019-05-19T05:18:40.168Z,241.90
2019-05-19T05:23:59.651Z,180.90
2019-05-19T05:29:19.445Z,265.43
2019-05-19T05:56:40.929Z,220.40
2019-05-19T06:02:00.494Z,215.53
2019-05-19T06:18:21.416Z,195.00
2019-05-19T06:23:39.878Z,122.10
2019-05-19T06:34:29.099Z,132.53
2019-05-19T06:39:52.172Z,142.70
2019-05-19T06:45:08.880Z,147.23
2019-05-19T06:55:59.858Z,87.87
2019-05-19T07:01:19.362Z,99.40
2019-05-19T07:23:06.185Z,57.07
2019-05-19T07:28:25.379Z,50.87
2019-05-19T07:33:45.163Z,40.80
2019-05-19T07:38:57.557Z,48.17
2019-05-19T07:44:10.772Z,42.00
2019-05-19T07:49:32.060Z,39.70
2019-05-19T07:54:45.965Z,43.70
2019-05-19T08:00:05.001Z,40.17
2019-05-19T08:05:22.308Z,50.73
2019-05-19T08:10:43.876Z,51.37
2019-05-19T08:21:31.898Z,48.70
2019-05-19T08:26:51.867Z,50.43
2019-05-19T08:43:11.333Z,60.03
2019-05-19T08:54:13.840Z,58.20
2019-05-19T08:59:21.061Z,55.47
2019-05-19T09:04:43.631Z,45.33
2019-05-19T09:21:02.066Z,37.70
2019-05-19T09:37:22.756Z,44.90
2019-05-19T09:53:34.889Z,34.92
2019-05-19T10:04:24.477Z,32.35
2019-05-19T10:09:45.501Z,31.17
2019-05-19T10:15:13.011Z,35.80
2019-05-19T10:20:30.930Z,30.90
2019-05-19T10:25:49.086Z,29.48
2019-05-19T10:31:12.470Z,32.80
2019-05-19T10:36:32.164Z,33.45
2019-05-19T10:47:20.361Z,28.47
2019-05-19T10:52:40.152Z,30.00
2019-05-19T10:58:00.160Z,29.63
2019-05-19T11:03:19.861Z,30.65
2019-05-19T11:08:39.855Z,23.38
2019-05-19T11:24:59.621Z,15.98
2019-05-19T11:35:48.842Z,16.10
2019-05-19T12:08:39.199Z,12.18
2019-05-19T12:13:59.037Z,10.90
2019-05-19T12:19:20.261Z,10.32
2019-05-19T12:24:38.935Z,9.08
2019-05-19T12:35:25.485Z,8.53
2019-05-19T12:40:45.385Z,8.00
2019-05-19T12:46:13.650Z,7.35
2019-05-19T12:51:26.791Z,6.58
2019-05-19T12:56:47.668Z,5.20
2019-05-19T13:02:08.468Z,7.20
2019-05-19T13:07:28.464Z,6.83
2019-05-19T13:12:48.160Z,5.97
2019-05-19T13:18:08.163Z,6.65
2019-05-19T13:23:28.470Z,5.83
2019-05-19T13:28:50.214Z,5.35
2019-05-19T13:39:38.281Z,5.22
2019-05-19T13:44:56.672Z,5.17
2019-05-19T13:50:24.640Z,6.03
2019-05-19T14:01:27.650Z,4.87
2019-05-19T14:12:04.028Z,6.17
2019-05-19T14:17:23.819Z,5.35
2019-05-19T14:22:43.510Z,5.10
2019-05-19T14:28:06.381Z,4.30
2019-05-19T14:33:20.812Z,4.75
2019-05-19T14:38:39.218Z,4.10
2019-05-19T14:43:59.115Z,4.97
2019-05-19T14:49:23.014Z,4.65
2019-05-19T15:05:41.695Z,8.50
2019-05-19T15:11:01.458Z,4.90
2019-05-19T15:32:49.313Z,4.92
2019-05-19T15:38:08.799Z,6.33
2019-05-19T15:43:29.110Z,4.33
2019-05-19T16:05:19.531Z,7.75
2019-05-19T16:16:07.521Z,8.10
2019-05-19T16:21:26.701Z,5.55
2019-05-19T16:37:47.702Z,13.40
2019-05-19T16:43:06.482Z,13.83
2019-05-19T16:48:26.169Z,12.47
2019-05-19T16:53:44.635Z,11.10
2019-05-19T17:26:30.213Z,7.25
2019-05-19T17:31:49.702Z,8.55
2019-05-19T17:37:09.408Z,17.35
2019-05-19T17:48:10.027Z,10.48
2019-05-19T17:53:22.207Z,10.75
2019-05-19T17:58:41.700Z,11.80
2019-05-19T18:31:31.232Z,17.43
2019-05-19T18:47:51.140Z,13.83
2019-05-19T18:58:39.912Z,13.17
2019-05-19T19:03:58.819Z,6.80
2019-05-19T19:09:16.980Z,8.00
2019-05-19T19:14:36.191Z,6.43
2019-05-19T19:30:52.862Z,11.50
2019-05-19T19:36:13.371Z,7.33
2019-05-19T20:03:24.278Z,5.03
2019-05-19T20:08:48.037Z,2.07
2019-05-19T20:14:06.756Z,3.23
2019-05-19T20:19:26.428Z,4.93
2019-05-19T20:24:49.342Z,4.30
2019-05-19T20:30:07.409Z,3.40
2019-05-19T20:35:26.882Z,5.83
2019-05-19T20:40:45.651Z,5.30
2019-05-19T20:46:04.322Z,4.37
2019-05-19T20:56:51.644Z,4.60
2019-05-19T21:07:44.915Z,4.33
2019-05-19T21:12:49.939Z,5.10
2019-05-19T21:23:17.686Z,6.23
2019-05-19T21:28:22.641Z,4.60
2019-05-19T21:33:27.723Z,6.93
2019-05-19T21:38:32.723Z,6.40
2019-05-19T21:43:37.751Z,4.63
2019-05-19T21:48:42.731Z,4.53
2019-05-19T21:53:48.881Z,5.23
2019-05-19T21:58:53.827Z,5.90
2019-05-19T22:03:58.871Z,4.20
2019-05-19T22:09:05.164Z,7.83
2019-05-19T22:14:10.311Z,9.03
2019-05-19T22:19:17.854Z,4.97
2019-05-19T22:24:22.895Z,6.40
2019-05-19T22:29:31.528Z,5.13
2019-05-19T22:34:37.543Z,5.07
2019-05-19T22:39:42.555Z,4.10
2019-05-19T22:44:47.572Z,6.07
2019-05-19T22:49:52.679Z,5.00
2019-05-19T22:54:57.731Z,6.30
2019-05-19T23:00:02.777Z,5.23
2019-05-19T23:05:10.087Z,4.53
2019-05-19T23:10:16.100Z,5.67
2019-05-19T23:15:21.364Z,4.53
2019-05-19T23:20:26.455Z,4.80
2019-05-19T23:25:31.492Z,5.33
2019-05-19T23:30:36.579Z,5.17
2019-05-19T23:35:41.619Z,6.07
2019-05-19T23:40:46.735Z,6.50
2019-05-19T23:45:51.680Z,7.07
2019-05-19T23:50:56.657Z,8.20
2019-05-19T23:56:01.703Z,6.63
